createdAt,value
2023-03-20T00:00:59.273Z,9.32
2023-03-20T00:02:31.592Z,9.45
2023-03-20T00:04:05.034Z,11.65
2023-03-20T00:05:38.632Z,12.10
2023-03-20T00:07:12.754Z,13.48
2023-03-20T00:08:47.365Z,13.95
2023-03-20T00:10:21.999Z,14.82
2023-03-20T00:11:56.866Z,15.20
2023-03-20T00:15:06.964Z,14.38
2023-03-20T00:16:43.569Z,13.85
2023-03-20T00:18:19.888Z,21.95
2023-03-20T00:19:51.970Z,24.25
2023-03-20T00:21:25.625Z,24.90
2023-03-20T00:22:58.951Z,27.38
2023-03-20T00:24:32.203Z,26.20
2023-03-20T00:26:05.546Z,30.23
2023-03-20T00:27:37.699Z,30.63
2023-03-20T00:29:21.380Z,27.52
2023-03-20T00:30:53.513Z,29.15
2023-03-20T00:32:28.285Z,30.98
2023-03-20T00:34:07.362Z,33.83
2023-03-20T00:35:40.570Z,30.88
2023-03-20T00:37:12.753Z,30.38
2023-03-20T00:38:45.821Z,31.48
2023-03-20T00:40:19.239Z,31.45
2023-03-20T00:41:55.908Z,30.45
2023-03-20T00:43:29.191Z,30.15
2023-03-20T00:45:05.068Z,29.63
2023-03-20T00:46:40.671Z,27.83
2023-03-20T00:48:16.930Z,28.60
2023-03-20T00:49:54.454Z,30.80
2023-03-20T00:51:27.749Z,31.88
2023-03-20T00:53:01.314Z,30.15
2023-03-20T00:54:34.666Z,30.70
2023-03-20T00:56:17.922Z,31.90
2023-03-20T00:57:54.326Z,29.25
2023-03-20T00:59:32.661Z,31.92
2023-03-20T01:01:07.593Z,33.03
2023-03-20T01:02:41.023Z,34.20
2023-03-20T01:04:17.442Z,31.52
2023-03-20T01:05:52.478Z,32.60
2023-03-20T01:07:25.669Z,33.25
2023-03-20T01:08:58.839Z,35.10
2023-03-20T01:10:34.358Z,30.85
2023-03-20T01:12:08.759Z,28.25
2023-03-20T01:13:42.310Z,24.83
2023-03-20T01:15:23.695Z,22.83
2023-03-20T01:16:57.290Z,22.55
2023-03-20T01:18:30.409Z,24.00
2023-03-20T01:20:02.589Z,23.20
2023-03-20T01:21:36.590Z,22.83
2023-03-20T01:23:10.637Z,26.73
2023-03-20T01:24:43.009Z,25.65
2023-03-20T01:26:34.849Z,29.88
2023-03-20T01:28:18.237Z,24.80
2023-03-20T01:29:50.392Z,21.00
2023-03-20T01:31:24.323Z,19.75
2023-03-20T01:33:00.795Z,20.10
2023-03-20T01:34:34.005Z,18.88
2023-03-20T01:36:10.500Z,21.98
2023-03-20T01:37:45.064Z,22.63
2023-03-20T01:39:19.101Z,20.27
2023-03-20T01:40:58.329Z,24.30
2023-03-20T01:42:32.338Z,23.02
2023-03-20T01:44:22.104Z,25.05
2023-03-20T01:46:04.024Z,23.23
2023-03-20T01:47:41.128Z,24.67
2023-03-20T01:50:17.582Z,25.90
2023-03-20T01:51:54.601Z,19.33
2023-03-20T01:53:31.212Z,20.98
2023-03-20T01:55:07.844Z,19.73
2023-03-20T01:58:27.045Z,15.98
2023-03-20T02:00:07.053Z,13.98
2023-03-20T02:01:49.707Z,15.80
2023-03-20T02:03:26.056Z,17.50
2023-03-20T02:06:57.269Z,11.80
2023-03-20T02:08:47.184Z,11.30
2023-03-20T02:10:21.880Z,14.23
2023-03-20T02:13:36.440Z,8.30
2023-03-20T02:15:11.822Z,11.93
2023-03-20T02:16:59.201Z,9.90
2023-03-20T02:18:41.367Z,9.65
2023-03-20T02:20:32.899Z,9.88
2023-03-20T02:22:52.091Z,10.05
2023-03-20T02:25:29.378Z,8.70
2023-03-20T02:27:14.529Z,10.93
2023-03-20T02:29:28.696Z,9.18
2023-03-20T02:31:30.810Z,8.65
2023-03-20T02:33:54.669Z,9.40
2023-03-20T02:36:27.475Z,9.35
2023-03-20T02:38:30.796Z,7.63
2023-03-20T02:40:22.571Z,9.52
2023-03-20T02:42:05.689Z,8.93
2023-03-20T02:43:48.703Z,10.45
2023-03-20T02:45:28.907Z,9.15
2023-03-20T02:47:24.835Z,9.60
2023-03-20T02:49:11.552Z,8.60
2023-03-20T02:50:52.685Z,8.90
2023-03-20T02:52:37.166Z,9.88
2023-03-20T02:54:24.455Z,10.23
2023-03-20T02:56:13.254Z,11.10
2023-03-20T02:58:00.984Z,11.02
2023-03-20T02:59:43.070Z,10.00
2023-03-20T03:01:25.074Z,11.73
2023-03-20T03:03:11.529Z,9.60
2023-03-20T03:04:56.621Z,10.20
2023-03-20T03:06:33.019Z,9.52
2023-03-20T03:08:10.943Z,10.98
2023-03-20T03:09:53.735Z,10.57
2023-03-20T03:11:27.257Z,9.30
2023-03-20T03:13:05.665Z,9.88
2023-03-20T03:14:46.606Z,11.52
2023-03-20T03:16:28.187Z,11.13
2023-03-20T03:18:04.998Z,10.95
2023-03-20T03:19:42.415Z,9.70
2023-03-20T03:21:19.759Z,9.60
2023-03-20T03:22:53.479Z,9.27
2023-03-20T03:24:40.743Z,9.85
2023-03-20T03:26:23.687Z,9.07
2023-03-20T03:28:09.204Z,8.88
2023-03-20T03:29:44.030Z,9.27
2023-03-20T03:31:19.477Z,9.73
2023-03-20T03:33:15.313Z,10.35
2023-03-20T03:34:49.181Z,9.88
2023-03-20T03:36:39.595Z,8.13
2023-03-20T03:38:30.850Z,8.52
2023-03-20T03:40:20.962Z,9.38
2023-03-20T03:42:07.638Z,8.93
2023-03-20T03:43:51.956Z,7.03
2023-03-20T03:45:34.521Z,8.15
2023-03-20T03:47:14.032Z,7.00
2023-03-20T03:48:55.349Z,8.32
2023-03-20T03:50:34.990Z,8.10
2023-03-20T03:52:14.405Z,6.05
2023-03-20T03:53:55.281Z,7.38
2023-03-20T03:55:36.381Z,5.90
2023-03-20T03:57:23.699Z,7.28
2023-03-20T03:59:01.838Z,6.90
2023-03-20T04:00:36.552Z,6.38
2023-03-20T04:02:11.283Z,6.13
2023-03-20T04:03:52.143Z,6.70
2023-03-20T04:05:31.344Z,7.38
2023-03-20T04:07:05.560Z,7.22
2023-03-20T04:10:15.339Z,7.20
2023-03-20T04:11:53.283Z,8.38
2023-03-20T04:13:26.869Z,8.80
2023-03-20T04:15:02.465Z,8.02
2023-03-20T04:16:36.770Z,8.68
2023-03-20T04:18:16.452Z,8.90
2023-03-20T04:19:50.704Z,8.38
2023-03-20T04:21:25.480Z,7.70
2023-03-20T04:22:59.133Z,8.23
2023-03-20T04:24:32.810Z,7.43
2023-03-20T04:26:07.532Z,7.70
2023-03-20T04:27:40.728Z,8.07
2023-03-20T04:29:21.416Z,9.55
2023-03-20T04:31:02.750Z,8.07
2023-03-20T04:32:54.455Z,7.68
2023-03-20T04:34:39.301Z,7.07
2023-03-20T04:36:32.549Z,6.22
2023-03-20T04:38:04.837Z,9.80
2023-03-20T04:39:42.294Z,6.80
2023-03-20T04:41:15.462Z,8.50
2023-03-20T04:42:49.906Z,8.48
2023-03-20T04:44:25.526Z,8.05
2023-03-20T04:45:59.142Z,7.85
2023-03-20T04:47:32.618Z,9.35
2023-03-20T04:49:06.206Z,8.35
2023-03-20T04:50:39.784Z,8.30
2023-03-20T04:52:13.730Z,8.43
2023-03-20T04:53:49.197Z,7.80
2023-03-20T04:55:22.628Z,10.40
2023-03-20T04:56:56.250Z,10.20
2023-03-20T04:58:29.936Z,7.78
2023-03-20T05:00:05.276Z,9.10
2023-03-20T05:01:38.628Z,9.20
2023-03-20T05:03:12.048Z,9.88
2023-03-20T05:04:45.852Z,10.43
2023-03-20T05:06:19.164Z,10.80
2023-03-20T05:07:53.113Z,9.27
2023-03-20T05:09:35.197Z,9.32
2023-03-20T05:11:10.893Z,10.00
2023-03-20T05:13:02.697Z,9.30
2023-03-20T05:14:59.669Z,10.48
2023-03-20T05:16:57.279Z,9.35
2023-03-20T05:18:29.626Z,9.45
2023-03-20T05:20:31.336Z,10.32
2023-03-20T05:22:11.365Z,9.18
2023-03-20T05:25:36.966Z,9.15
2023-03-20T05:27:43.005Z,8.35
2023-03-20T05:29:40.597Z,8.20
2023-03-20T05:31:13.776Z,10.35
2023-03-20T05:33:08.463Z,8.85
2023-03-20T05:35:12.658Z,9.50
2023-03-20T05:37:08.980Z,8.85
2023-03-20T05:39:00.913Z,11.00
2023-03-20T05:40:50.564Z,10.40
2023-03-20T05:42:23.886Z,8.80
2023-03-20T05:44:16.504Z,9.07
2023-03-20T05:46:04.494Z,10.13
2023-03-20T05:48:01.065Z,9.68
2023-03-20T05:49:53.759Z,11.13
2023-03-20T05:51:38.227Z,9.10
2023-03-20T05:53:28.246Z,9.75
2023-03-20T05:55:16.950Z,9.30
2023-03-20T05:57:10.050Z,8.55
2023-03-20T05:59:02.876Z,8.75
2023-03-20T06:00:53.429Z,9.10
2023-03-20T06:02:47.344Z,7.35
2023-03-20T06:04:58.297Z,9.25
2023-03-20T06:06:37.819Z,11.35
2023-03-20T06:08:11.232Z,9.57
2023-03-20T06:09:44.426Z,12.27
2023-03-20T06:11:19.912Z,11.68
2023-03-20T06:12:55.009Z,9.75
2023-03-20T06:14:31.719Z,11.40
2023-03-20T06:16:10.457Z,10.82
2023-03-20T06:17:44.707Z,11.00
2023-03-20T06:19:21.949Z,11.88
2023-03-20T06:20:58.296Z,12.02
2023-03-20T06:22:34.244Z,11.95
2023-03-20T06:24:08.485Z,10.45
2023-03-20T06:25:41.587Z,11.43
2023-03-20T06:27:14.869Z,11.40
2023-03-20T06:28:48.742Z,11.05
2023-03-20T06:30:22.049Z,10.80
2023-03-20T06:31:57.016Z,13.25
2023-03-20T06:33:34.661Z,11.73
2023-03-20T06:35:09.964Z,11.98
2023-03-20T06:36:45.680Z,11.23
2023-03-20T06:38:24.997Z,9.30
2023-03-20T06:39:58.600Z,11.75
2023-03-20T06:41:34.916Z,11.57
2023-03-20T06:43:12.645Z,11.15
2023-03-20T06:44:52.833Z,10.98
2023-03-20T06:46:55.130Z,9.93
2023-03-20T06:48:28.318Z,10.30
2023-03-20T06:50:02.261Z,12.65
2023-03-20T06:51:37.411Z,10.55
2023-03-20T06:53:13.406Z,10.43
2023-03-20T06:54:52.055Z,11.25
2023-03-20T06:56:25.597Z,10.32
2023-03-20T06:57:58.654Z,11.18
2023-03-20T06:59:32.428Z,11.35
2023-03-20T07:01:11.328Z,10.38
2023-03-20T07:02:44.786Z,10.23
2023-03-20T07:04:20.906Z,9.90
2023-03-20T07:05:58.195Z,9.43
2023-03-20T07:07:31.526Z,9.10
2023-03-20T07:09:07.691Z,9.85
2023-03-20T07:10:41.092Z,9.07
2023-03-20T07:12:15.952Z,11.88
2023-03-20T07:13:50.293Z,10.38
2023-03-20T07:16:01.283Z,9.68
2023-03-20T07:17:39.308Z,9.27
2023-03-20T07:19:13.439Z,11.20
2023-03-20T07:20:49.363Z,11.60
2023-03-20T07:22:26.941Z,10.25
2023-03-20T07:24:12.246Z,10.20
2023-03-20T07:27:23.396Z,7.95
2023-03-20T07:28:59.964Z,9.25
2023-03-20T07:30:33.740Z,9.63
2023-03-20T07:32:06.969Z,8.90
2023-03-20T07:33:43.602Z,11.48
2023-03-20T07:35:16.937Z,7.75
2023-03-20T07:36:50.945Z,9.65
2023-03-20T07:38:27.108Z,9.13
2023-03-20T07:40:14.293Z,9.02
2023-03-20T07:41:59.303Z,10.48
2023-03-20T07:43:44.908Z,8.82
2023-03-20T07:45:27.209Z,8.27
2023-03-20T07:47:02.651Z,8.40
2023-03-20T07:48:35.898Z,7.57
2023-03-20T07:50:10.151Z,8.13
2023-03-20T07:51:43.262Z,9.13
2023-03-20T07:53:16.652Z,8.35
2023-03-20T07:54:49.743Z,8.50
2023-03-20T07:56:24.377Z,7.45
2023-03-20T07:57:57.847Z,7.88
2023-03-20T07:59:31.128Z,7.70
2023-03-20T08:01:04.827Z,8.27
2023-03-20T08:02:38.218Z,6.68
2023-03-20T08:04:11.781Z,6.25
2023-03-20T08:05:47.301Z,7.03
2023-03-20T08:07:21.256Z,7.43
2023-03-20T08:08:54.540Z,7.35
2023-03-20T08:10:27.817Z,8.80
2023-03-20T08:12:02.278Z,6.75
2023-03-20T08:13:35.600Z,6.63
2023-03-20T08:15:10.582Z,6.70
2023-03-20T08:18:16.895Z,5.75
2023-03-20T08:19:50.358Z,5.38
2023-03-20T08:21:23.548Z,5.13
2023-03-20T08:22:56.850Z,4.30
2023-03-20T08:24:30.729Z,4.05
2023-03-20T08:26:03.906Z,4.20
2023-03-20T08:27:39.479Z,3.83
2023-03-20T08:29:12.762Z,3.65
2023-03-20T08:30:46.057Z,3.67
2023-03-20T08:32:19.397Z,5.35
2023-03-20T08:33:53.301Z,4.75
2023-03-20T08:35:33.312Z,5.50
2023-03-20T08:37:07.837Z,4.30
2023-03-20T08:38:41.001Z,5.00
2023-03-20T08:40:14.612Z,5.60
2023-03-20T08:41:48.499Z,6.28
2023-03-20T08:43:23.175Z,5.80
2023-03-20T08:44:56.523Z,4.53
2023-03-20T08:46:29.907Z,6.38
2023-03-20T08:48:03.247Z,5.15
2023-03-20T08:49:36.864Z,5.75
2023-03-20T08:51:10.089Z,4.03
2023-03-20T08:52:44.119Z,3.83
2023-03-20T08:54:18.624Z,5.45
2023-03-20T08:55:54.042Z,3.60
2023-03-20T08:57:27.208Z,5.75
2023-03-20T08:59:01.702Z,6.00
2023-03-20T09:00:34.873Z,5.13
2023-03-20T09:02:08.708Z,5.03
2023-03-20T09:03:42.329Z,4.47
2023-03-20T09:05:16.003Z,6.60
2023-03-20T09:06:51.574Z,7.68
2023-03-20T09:08:24.866Z,5.35
2023-03-20T09:09:58.007Z,5.90
2023-03-20T09:11:31.289Z,5.30
2023-03-20T09:13:15.685Z,6.05
2023-03-20T09:14:58.924Z,5.72
2023-03-20T09:16:32.113Z,4.45
2023-03-20T09:18:05.811Z,6.63
2023-03-20T09:19:39.966Z,8.02
2023-03-20T09:21:13.135Z,6.63
2023-03-20T09:22:46.544Z,5.57
2023-03-20T09:24:19.735Z,6.07
2023-03-20T09:25:52.874Z,5.18
2023-03-20T09:27:26.154Z,5.70
2023-03-20T09:28:59.484Z,6.90
2023-03-20T09:30:34.647Z,5.50
2023-03-20T09:32:08.218Z,5.50
2023-03-20T09:33:41.370Z,6.72
2023-03-20T09:35:14.781Z,6.38
2023-03-20T09:36:47.948Z,5.22
2023-03-20T09:38:21.513Z,7.60
2023-03-20T09:39:58.305Z,8.45
2023-03-20T09:41:48.965Z,7.93
2023-03-20T09:43:49.915Z,7.82
2023-03-20T09:45:41.665Z,7.97
2023-03-20T09:47:21.658Z,8.10
2023-03-20T09:49:10.555Z,7.45
2023-03-20T09:50:52.594Z,7.07
2023-03-20T09:52:34.098Z,7.40
2023-03-20T09:54:18.686Z,6.15
2023-03-20T09:55:54.753Z,7.05
2023-03-20T09:57:33.612Z,6.70
2023-03-20T09:59:08.778Z,8.30
2023-03-20T10:00:47.585Z,6.50
2023-03-20T10:02:35.410Z,7.15
2023-03-20T10:04:11.649Z,9.82
2023-03-20T10:05:52.456Z,7.47
2023-03-20T10:07:27.046Z,6.00
2023-03-20T10:09:00.229Z,7.65
2023-03-20T10:10:48.318Z,6.80
2023-03-20T10:12:49.882Z,5.50
2023-03-20T10:14:34.901Z,7.68
2023-03-20T10:16:21.229Z,9.32
2023-03-20T10:19:45.705Z,6.78
2023-03-20T10:21:31.719Z,7.35
2023-03-20T10:23:13.484Z,8.07
2023-03-20T10:24:55.237Z,9.40
2023-03-20T10:26:30.932Z,7.38
2023-03-20T10:28:13.366Z,7.88
2023-03-20T10:29:58.517Z,9.63
2023-03-20T10:31:44.840Z,7.03
2023-03-20T10:33:46.848Z,7.70
2023-03-20T10:35:29.254Z,8.20
2023-03-20T10:37:24.531Z,7.20
2023-03-20T10:39:07.346Z,7.38
2023-03-20T10:40:44.890Z,7.68
2023-03-20T10:42:24.647Z,6.90
2023-03-20T10:44:00.517Z,7.80
2023-03-20T10:45:44.039Z,9.07
2023-03-20T10:47:25.834Z,7.30
2023-03-20T10:49:06.445Z,7.43
2023-03-20T10:50:48.957Z,8.38
2023-03-20T10:52:27.673Z,9.05
2023-03-20T10:54:06.033Z,6.32
2023-03-20T10:55:45.073Z,8.13
2023-03-20T10:57:24.268Z,7.03
2023-03-20T10:59:06.800Z,8.32
2023-03-20T11:00:40.566Z,8.25
2023-03-20T11:02:16.155Z,10.85
2023-03-20T11:03:51.008Z,6.93
2023-03-20T11:05:31.548Z,7.00
2023-03-20T11:07:17.238Z,6.97
2023-03-20T11:08:53.657Z,7.28
2023-03-20T11:10:28.354Z,7.82
2023-03-20T11:12:04.597Z,8.40
2023-03-20T11:13:42.886Z,7.55
2023-03-20T11:15:23.826Z,8.13
2023-03-20T11:17:03.678Z,7.93
2023-03-20T11:18:36.845Z,6.68
2023-03-20T11:20:15.349Z,7.28
2023-03-20T11:21:52.994Z,7.13
2023-03-20T11:23:30.403Z,7.80
2023-03-20T11:25:03.905Z,8.00
2023-03-20T11:26:41.072Z,8.88
2023-03-20T11:28:26.334Z,8.80
2023-03-20T11:30:03.493Z,7.05
2023-03-20T11:31:40.702Z,8.73
2023-03-20T11:33:16.555Z,7.82
2023-03-20T11:34:50.881Z,6.75
2023-03-20T11:36:30.203Z,8.32
2023-03-20T11:38:16.455Z,8.30
2023-03-20T11:39:59.321Z,7.47
2023-03-20T11:41:33.406Z,6.50
2023-03-20T11:43:13.992Z,6.47
2023-03-20T11:46:31.962Z,5.75
2023-03-20T11:48:07.974Z,5.40
2023-03-20T11:49:50.594Z,6.07
2023-03-20T11:51:26.393Z,4.28
2023-03-20T11:53:00.213Z,4.50
2023-03-20T11:54:33.676Z,3.88
2023-03-20T11:56:11.835Z,5.53
2023-03-20T11:57:47.401Z,7.90
2023-03-20T11:59:21.802Z,6.85
2023-03-20T12:00:57.415Z,5.18
2023-03-20T12:02:31.203Z,4.47
2023-03-20T12:04:09.166Z,6.47
2023-03-20T12:05:42.350Z,7.07
2023-03-20T12:07:24.140Z,5.53
2023-03-20T12:09:03.717Z,6.25
2023-03-20T12:10:43.513Z,5.90
2023-03-20T12:12:37.831Z,6.72
2023-03-20T12:14:24.978Z,5.28
2023-03-20T12:16:04.588Z,4.85
2023-03-20T12:17:48.780Z,7.35
2023-03-20T12:19:30.751Z,8.32
2023-03-20T12:21:12.450Z,7.97
2023-03-20T12:22:57.807Z,6.15
2023-03-20T12:24:39.771Z,4.43
2023-03-20T12:26:17.650Z,9.43
2023-03-20T12:28:04.801Z,10.75
2023-03-20T12:29:47.184Z,5.68
2023-03-20T12:31:31.227Z,4.53
2023-03-20T12:33:13.164Z,4.93
2023-03-20T12:34:56.411Z,4.88
2023-03-20T12:36:41.863Z,4.88
2023-03-20T12:38:31.379Z,4.60
2023-03-20T12:40:06.391Z,4.30
2023-03-20T12:41:50.513Z,4.70
2023-03-20T12:43:28.490Z,4.60
2023-03-20T12:45:11.926Z,3.90
2023-03-20T12:46:57.410Z,3.63
2023-03-20T12:49:04.578Z,4.55
2023-03-20T12:50:41.569Z,7.22
2023-03-20T12:52:29.349Z,4.80
2023-03-20T12:54:23.517Z,3.58
2023-03-20T12:56:15.477Z,6.50
2023-03-20T12:58:02.626Z,10.02
2023-03-20T12:59:59.406Z,14.85
2023-03-20T13:01:37.826Z,7.85
2023-03-20T13:03:30.246Z,5.80
2023-03-20T13:05:23.985Z,22.77
2023-03-20T13:07:01.951Z,8.40
2023-03-20T13:09:41.694Z,5.45
2023-03-20T13:11:32.221Z,11.70
2023-03-20T13:13:20.991Z,8.35
2023-03-20T13:15:06.884Z,7.15
2023-03-20T13:16:52.274Z,3.92
2023-03-20T13:18:52.003Z,4.88
2023-03-20T13:20:30.040Z,5.43
2023-03-20T13:22:09.701Z,11.32
2023-03-20T13:23:55.803Z,5.50
2023-03-20T13:25:53.674Z,4.13
2023-03-20T13:27:40.261Z,3.97
2023-03-20T13:29:23.841Z,7.47
2023-03-20T13:31:09.138Z,6.10
2023-03-20T13:32:58.658Z,5.18
2023-03-20T13:34:54.869Z,3.85
2023-03-20T13:36:51.092Z,3.75
2023-03-20T13:38:29.215Z,5.85
2023-03-20T13:40:12.568Z,6.18
2023-03-20T13:41:48.801Z,4.75
2023-03-20T13:43:31.292Z,5.47
2023-03-20T13:45:14.557Z,5.63
2023-03-20T13:46:52.629Z,3.60
2023-03-20T13:48:34.771Z,6.10
2023-03-20T13:50:28.821Z,4.72
2023-03-20T13:52:11.368Z,4.55
2023-03-20T13:54:02.546Z,4.72
2023-03-20T13:55:49.366Z,4.75
2023-03-20T13:57:47.826Z,5.20
2023-03-20T13:59:44.530Z,3.78
2023-03-20T14:01:25.917Z,5.00
2023-03-20T14:03:17.760Z,3.70
2023-03-20T14:05:06.057Z,4.45
2023-03-20T14:06:50.960Z,4.10
2023-03-20T14:08:33.679Z,4.57
2023-03-20T14:10:36.062Z,5.45
2023-03-20T14:12:13.307Z,4.60
2023-03-20T14:13:51.792Z,6.63
2023-03-20T14:15:28.974Z,4.93
2023-03-20T14:17:16.086Z,5.07
2023-03-20T14:18:51.203Z,3.70
2023-03-20T14:20:32.507Z,5.03
2023-03-20T14:22:07.456Z,5.05
2023-03-20T14:25:25.797Z,3.83
2023-03-20T14:27:03.987Z,4.63
2023-03-20T14:28:59.947Z,7.00
2023-03-20T14:30:44.577Z,5.30
2023-03-20T14:32:36.379Z,5.55
2023-03-20T14:34:18.050Z,4.65
2023-03-20T14:36:11.440Z,4.85
2023-03-20T14:38:21.961Z,6.13
2023-03-20T14:40:04.059Z,6.05
2023-03-20T14:41:57.366Z,7.95
2023-03-20T14:43:58.548Z,4.88
2023-03-20T14:45:44.051Z,4.55
2023-03-20T14:47:33.293Z,3.90
2023-03-20T14:49:35.045Z,4.93
2023-03-20T14:51:27.643Z,3.97
2023-03-20T14:53:17.826Z,4.97
2023-03-20T14:54:53.854Z,5.35
2023-03-20T14:56:32.369Z,2.92
2023-03-20T14:58:38.954Z,2.80
2023-03-20T15:00:21.110Z,3.60
2023-03-20T15:02:07.887Z,2.45
2023-03-20T15:03:43.057Z,2.85
2023-03-20T15:05:29.483Z,4.82
2023-03-20T15:08:46.141Z,1.75
2023-03-20T15:10:19.928Z,2.30
2023-03-20T15:11:59.759Z,2.72
2023-03-20T15:13:36.086Z,3.30
2023-03-20T15:15:25.710Z,2.85
2023-03-20T15:17:02.230Z,2.67
2023-03-20T15:18:41.726Z,3.13
2023-03-20T15:20:19.071Z,3.50
2023-03-20T15:21:52.140Z,2.42
2023-03-20T15:23:26.951Z,3.50
2023-03-20T15:26:36.503Z,2.75
2023-03-20T15:28:18.052Z,2.40
2023-03-20T15:29:55.904Z,3.35
2023-03-20T15:31:32.619Z,3.42
2023-03-20T15:33:09.095Z,4.10
2023-03-20T15:34:44.655Z,3.15
2023-03-20T15:36:21.457Z,2.42
2023-03-20T15:37:57.957Z,2.25
2023-03-20T15:39:43.862Z,2.28
2023-03-20T15:41:28.998Z,2.83
2023-03-20T15:43:13.613Z,2.92
2023-03-20T15:44:50.060Z,3.28
2023-03-20T15:46:27.717Z,4.82
2023-03-20T15:48:02.496Z,2.75
2023-03-20T15:49:37.928Z,2.55
2023-03-20T15:51:12.277Z,4.72
2023-03-20T15:52:52.738Z,3.67
2023-03-20T15:54:26.493Z,2.58
2023-03-20T15:56:17.310Z,2.85
2023-03-20T15:57:53.980Z,2.53
2023-03-20T15:59:31.235Z,2.72
2023-03-20T16:01:06.494Z,3.70
2023-03-20T16:02:39.778Z,5.97
2023-03-20T16:04:16.832Z,3.47
2023-03-20T16:05:53.772Z,2.70
2023-03-20T16:07:31.679Z,2.40
2023-03-20T16:09:09.247Z,3.58
2023-03-20T16:10:44.713Z,5.68
2023-03-20T16:12:33.518Z,3.05
2023-03-20T16:14:28.152Z,3.00
2023-03-20T16:16:24.224Z,2.42
2023-03-20T16:18:16.288Z,2.60
2023-03-20T16:19:56.998Z,2.97
2023-03-20T16:21:50.408Z,3.38
2023-03-20T16:23:51.795Z,4.57
2023-03-20T16:25:32.362Z,2.97
2023-03-20T16:27:13.871Z,3.08
2023-03-20T16:29:03.594Z,2.58
2023-03-20T16:31:02.306Z,2.05
2023-03-20T16:32:54.138Z,2.10
2023-03-20T16:34:43.587Z,3.38
2023-03-20T16:36:37.003Z,2.13
2023-03-20T16:38:32.816Z,3.17
2023-03-20T16:40:30.746Z,2.63
2023-03-20T16:42:36.740Z,2.47
2023-03-20T16:44:26.095Z,2.75
2023-03-20T16:46:16.116Z,3.97
2023-03-20T16:47:50.923Z,2.78
2023-03-20T16:49:51.545Z,1.88
2023-03-20T16:51:28.351Z,3.95
2023-03-20T16:53:01.926Z,4.75
2023-03-20T16:54:38.180Z,2.58
2023-03-20T16:56:14.308Z,3.13
2023-03-20T16:57:52.609Z,4.32
2023-03-20T16:59:27.702Z,2.45
2023-03-20T17:01:04.590Z,3.67
2023-03-20T17:02:41.264Z,4.50
2023-03-20T17:04:21.395Z,3.33
2023-03-20T17:06:00.756Z,1.80
2023-03-20T17:07:34.381Z,2.85
2023-03-20T17:09:21.381Z,3.72
2023-03-20T17:11:00.385Z,3.78
2023-03-20T17:12:33.673Z,2.75
2023-03-20T17:14:06.849Z,5.07
2023-03-20T17:15:40.091Z,2.38
2023-03-20T17:17:14.491Z,3.55
2023-03-20T17:18:58.797Z,5.78
2023-03-20T17:20:32.009Z,3.08
2023-03-20T17:22:15.639Z,2.75
2023-03-20T17:23:48.767Z,5.38
2023-03-20T17:25:22.377Z,4.88
2023-03-20T17:26:57.625Z,4.05
2023-03-20T17:28:36.990Z,2.85
2023-03-20T17:30:18.750Z,2.58
2023-03-20T17:31:51.938Z,4.03
2023-03-20T17:33:25.084Z,3.30
2023-03-20T17:34:58.169Z,4.95
2023-03-20T17:36:33.828Z,4.85
2023-03-20T17:38:08.366Z,6.40
2023-03-20T17:39:41.991Z,3.83
2023-03-20T17:41:17.069Z,4.72
2023-03-20T17:42:51.573Z,4.15
2023-03-20T17:44:24.848Z,5.68
2023-03-20T17:45:59.355Z,3.90
2023-03-20T17:47:33.230Z,3.92
2023-03-20T17:49:11.598Z,3.35
2023-03-20T17:50:46.262Z,4.00
2023-03-20T17:52:22.977Z,3.78
2023-03-20T17:53:57.809Z,1.83
2023-03-20T17:57:04.150Z,3.47
2023-03-20T17:58:39.355Z,2.63
2023-03-20T18:00:20.375Z,4.35
2023-03-20T18:01:53.629Z,2.45
2023-03-20T18:03:26.951Z,5.25
2023-03-20T18:05:00.170Z,3.78
2023-03-20T18:06:35.048Z,2.92
2023-03-20T18:09:48.922Z,2.85
2023-03-20T18:11:22.592Z,2.92
2023-03-20T18:12:55.705Z,4.30
2023-03-20T18:14:30.196Z,4.32
2023-03-20T18:16:03.592Z,4.13
2023-03-20T18:17:36.716Z,3.03
2023-03-20T18:19:23.296Z,3.78
2023-03-20T18:20:57.345Z,4.00
2023-03-20T18:22:30.471Z,6.07
2023-03-20T18:24:03.670Z,5.28
2023-03-20T18:25:37.456Z,3.58
2023-03-20T18:27:12.020Z,4.68
2023-03-20T18:28:45.235Z,7.20
2023-03-20T18:30:24.151Z,4.13
2023-03-20T18:31:57.551Z,5.10
2023-03-20T18:33:30.955Z,6.97
2023-03-20T18:35:04.400Z,4.35
2023-03-20T18:36:37.575Z,4.88
2023-03-20T18:38:13.911Z,3.85
2023-03-20T18:39:47.433Z,5.05
2023-03-20T18:41:21.419Z,3.88
2023-03-20T18:42:56.238Z,3.47
2023-03-20T18:44:29.328Z,6.50
2023-03-20T18:46:03.906Z,2.47
2023-03-20T18:47:37.237Z,6.22
2023-03-20T18:49:16.843Z,4.60
2023-03-20T18:50:52.390Z,5.78
2023-03-20T18:52:25.768Z,2.97
2023-03-20T18:53:58.890Z,4.55
2023-03-20T18:55:33.386Z,4.93
2023-03-20T18:57:06.523Z,4.95
2023-03-20T18:58:40.048Z,3.85
2023-03-20T19:00:25.599Z,4.32
2023-03-20T19:02:00.940Z,5.53
2023-03-20T19:03:39.181Z,4.95
2023-03-20T19:05:12.742Z,4.22
2023-03-20T19:06:46.365Z,6.57
2023-03-20T19:08:20.192Z,6.05
2023-03-20T19:09:54.245Z,3.60
2023-03-20T19:11:28.182Z,3.15
2023-03-20T19:13:02.188Z,3.80
2023-03-20T19:14:35.527Z,3.83
2023-03-20T19:16:23.267Z,4.35
2023-03-20T19:17:58.264Z,4.57
2023-03-20T19:21:04.891Z,3.30
2023-03-20T19:22:38.016Z,3.22
2023-03-20T19:24:12.425Z,3.42
2023-03-20T19:25:48.782Z,2.65
2023-03-20T19:27:22.170Z,4.00
2023-03-20T19:28:57.865Z,3.63
2023-03-20T19:30:34.826Z,2.83
2023-03-20T19:32:08.095Z,5.43
2023-03-20T19:33:42.663Z,4.43
2023-03-20T19:35:46.789Z,4.55
2023-03-20T19:37:13.054Z,3.88
2023-03-20T19:38:46.416Z,4.13
2023-03-20T19:40:31.941Z,6.90
2023-03-20T19:42:30.338Z,5.63
2023-03-20T19:44:01.456Z,5.28
2023-03-20T19:45:38.258Z,5.03
2023-03-20T19:47:12.289Z,4.10
2023-03-20T19:48:51.058Z,6.88
2023-03-20T19:50:30.636Z,4.25
2023-03-20T19:52:07.039Z,3.17
2023-03-20T19:53:40.709Z,6.53
2023-03-20T19:55:14.422Z,4.68
2023-03-20T19:56:47.783Z,6.68
2023-03-20T19:58:21.492Z,7.00
2023-03-20T19:59:54.680Z,5.05
2023-03-20T20:01:27.942Z,5.78
2023-03-20T20:03:03.511Z,5.13
2023-03-20T20:04:38.376Z,7.85
2023-03-20T20:06:12.388Z,6.18
2023-03-20T20:08:17.046Z,4.43
2023-03-20T20:09:38.837Z,3.40
2023-03-20T20:11:14.633Z,4.90
2023-03-20T20:12:48.451Z,3.65
2023-03-20T20:14:23.811Z,4.07
2023-03-20T20:15:58.166Z,4.78
2023-03-20T20:17:31.577Z,5.57
2023-03-20T20:19:05.816Z,8.20
2023-03-20T20:21:27.258Z,4.85
2023-03-20T20:22:39.297Z,4.57
2023-03-20T20:24:13.110Z,3.88
2023-03-20T20:25:50.469Z,4.15
2023-03-20T20:27:31.503Z,4.38
2023-03-20T20:29:04.675Z,3.60
2023-03-20T20:30:39.556Z,2.95
2023-03-20T20:32:12.747Z,6.28
2023-03-20T20:34:02.252Z,5.97
2023-03-20T20:36:15.308Z,4.70
2023-03-20T20:38:28.280Z,5.70
2023-03-20T20:39:39.533Z,4.38
2023-03-20T20:42:49.201Z,5.93
2023-03-20T20:44:22.335Z,5.82
2023-03-20T20:45:55.689Z,4.40
2023-03-20T20:47:28.802Z,9.40
2023-03-20T20:49:18.094Z,5.57
2023-03-20T20:50:53.412Z,4.25
2023-03-20T20:52:26.547Z,5.88
2023-03-20T20:53:59.864Z,4.90
2023-03-20T20:55:36.285Z,6.10
2023-03-20T20:57:11.927Z,4.72
2023-03-20T20:58:45.142Z,6.13
2023-03-20T21:00:21.279Z,4.28
2023-03-20T21:01:54.661Z,5.85
2023-03-20T21:03:29.033Z,4.97
2023-03-20T21:05:03.363Z,4.93
2023-03-20T21:07:06.163Z,6.45
2023-03-20T21:08:31.035Z,4.65
2023-03-20T21:10:07.152Z,3.90
2023-03-20T21:11:40.474Z,4.72
2023-03-20T21:13:17.031Z,7.40
2023-03-20T21:14:52.265Z,4.25
2023-03-20T21:16:34.445Z,4.32
2023-03-20T21:18:10.665Z,4.88
2023-03-20T21:19:44.786Z,4.65
2023-03-20T21:21:19.045Z,5.65
2023-03-20T21:22:53.494Z,4.68
2023-03-20T21:24:33.074Z,2.78
2023-03-20T21:27:46.282Z,3.33
2023-03-20T21:29:19.891Z,3.08
2023-03-20T21:31:16.502Z,3.15
2023-03-20T21:32:47.380Z,4.18
2023-03-20T21:34:26.007Z,3.22
2023-03-20T21:36:02.282Z,4.15
2023-03-20T21:39:37.521Z,3.78
2023-03-20T21:41:12.667Z,3.42
2023-03-20T21:42:48.243Z,2.50
2023-03-20T21:44:57.396Z,4.50
2023-03-20T21:46:55.284Z,4.63
2023-03-20T21:49:06.268Z,3.25
2023-03-20T21:54:47.761Z,5.50
2023-03-20T21:56:31.468Z,7.63
2023-03-20T22:00:06.847Z,3.78
2023-03-20T22:03:37.000Z,3.38
2023-03-20T22:07:36.569Z,4.18
2023-03-20T22:13:29.578Z,4.93
2023-03-20T22:15:25.404Z,2.83
2023-03-20T22:17:33.173Z,5.28
2023-03-20T22:21:15.630Z,5.43
2023-03-20T22:23:07.659Z,4.82
2023-03-20T22:30:43.538Z,5.95
2023-03-20T22:34:25.811Z,4.82
2023-03-20T22:40:14.343Z,4.93
2023-03-20T22:45:10.165Z,6.25
2023-03-20T22:46:46.994Z,5.72
2023-03-20T22:48:22.589Z,4.80
2023-03-20T22:51:36.835Z,4.63
2023-03-20T22:53:11.675Z,5.28
2023-03-20T22:54:44.880Z,4.63
2023-03-20T22:56:19.404Z,5.10
2023-03-20T22:58:06.354Z,4.70
2023-03-20T22:59:41.026Z,9.70
2023-03-20T23:01:14.287Z,4.85
2023-03-20T23:03:17.570Z,7.28
2023-03-20T23:05:14.259Z,6.25
2023-03-20T23:07:06.106Z,7.72
2023-03-20T23:08:49.276Z,6.43
2023-03-20T23:10:25.224Z,7.88